sensor_id;sensor_type;location;lat;lon;timestamp;temperature;humidity
76172;DHT22;64929;51.178;4.138;2023-05-19T00:02:04;10.90;76.70
76172;DHT22;64929;51.178;4.138;2023-05-19T00:04:33;10.80;77.60
76172;DHT22;64929;51.178;4.138;2023-05-19T00:07:00;10.80;77.40
76172;DHT22;64929;51.178;4.138;2023-05-19T00:09:27;10.90;77.20
76172;DHT22;64929;51.178;4.138;2023-05-19T00:11:53;10.90;77.50
76172;DHT22;64929;51.178;4.138;2023-05-19T00:14:19;10.90;77.30
76172;DHT22;64929;51.178;4.138;2023-05-19T00:16:45;10.80;77.30
76172;DHT22;64929;51.178;4.138;2023-05-19T00:19:11;10.80;77.70
76172;DHT22;64929;51.178;4.138;2023-05-19T00:21:37;10.80;78.00
76172;DHT22;64929;51.178;4.138;2023-05-19T00:24:04;10.80;77.70
76172;DHT22;64929;51.178;4.138;2023-05-19T00:26:29;10.80;77.80
76172;DHT22;64929;51.178;4.138;2023-05-19T00:28:55;10.70;78.00
76172;DHT22;64929;51.178;4.138;2023-05-19T00:31:21;10.70;78.00
76172;DHT22;64929;51.178;4.138;2023-05-19T00:33:47;10.60;78.70
76172;DHT22;64929;51.178;4.138;2023-05-19T00:36:12;10.60;78.20
76172;DHT22;64929;51.178;4.138;2023-05-19T00:38:38;10.60;78.20
76172;DHT22;64929;51.178;4.138;2023-05-19T00:41:05;10.70;77.70
76172;DHT22;64929;51.178;4.138;2023-05-19T00:43:31;10.50;78.00
76172;DHT22;64929;51.178;4.138;2023-05-19T00:46:00;10.50;77.70
76172;DHT22;64929;51.178;4.138;2023-05-19T00:48:26;10.50;77.80
76172;DHT22;64929;51.178;4.138;2023-05-19T00:50:59;10.60;77.50
76172;DHT22;64929;51.178;4.138;2023-05-19T00:53:29;10.90;76.40
76172;DHT22;64929;51.178;4.138;2023-05-19T00:55:56;10.70;77.10
76172;DHT22;64929;51.178;4.138;2023-05-19T00:58:24;10.60;77.50
76172;DHT22;64929;51.178;4.138;2023-05-19T01:00:54;10.70;77.10
76172;DHT22;64929;51.178;4.138;2023-05-19T01:03:21;10.60;77.10
76172;DHT22;64929;51.178;4.138;2023-05-19T01:05:47;10.60;77.70
76172;DHT22;64929;51.178;4.138;2023-05-19T01:08:14;10.60;77.60
76172;DHT22;64929;51.178;4.138;2023-05-19T01:10:40;10.40;78.20
76172;DHT22;64929;51.178;4.138;2023-05-19T01:13:06;10.30;78.60
76172;DHT22;64929;51.178;4.138;2023-05-19T01:15:38;10.50;77.80
76172;DHT22;64929;51.178;4.138;2023-05-19T01:18:14;10.30;78.20
76172;DHT22;64929;51.178;4.138;2023-05-19T01:20:50;10.30;78.90
76172;DHT22;64929;51.178;4.138;2023-05-19T01:31:41;10.70;77.10
76172;DHT22;64929;51.178;4.138;2023-05-19T01:34:08;10.50;78.50
76172;DHT22;64929;51.178;4.138;2023-05-19T01:36:36;10.30;78.30
76172;DHT22;64929;51.178;4.138;2023-05-19T01:39:03;10.20;79.10
76172;DHT22;64929;51.178;4.138;2023-05-19T01:41:29;10.20;78.90
76172;DHT22;64929;51.178;4.138;2023-05-19T01:43:57;10.10;79.70
76172;DHT22;64929;51.178;4.138;2023-05-19T01:46:23;10.10;80.00
76172;DHT22;64929;51.178;4.138;2023-05-19T01:48:49;10.20;79.90
76172;DHT22;64929;51.178;4.138;2023-05-19T01:51:16;9.90;80.30
76172;DHT22;64929;51.178;4.138;2023-05-19T01:53:41;9.90;81.00
76172;DHT22;64929;51.178;4.138;2023-05-19T01:56:07;9.80;81.20
76172;DHT22;64929;51.178;4.138;2023-05-19T01:58:47;9.90;81.50
76172;DHT22;64929;51.178;4.138;2023-05-19T02:02:08;10.20;80.20
76172;DHT22;64929;51.178;4.138;2023-05-19T02:04:35;10.10;79.40
76172;DHT22;64929;51.178;4.138;2023-05-19T02:07:14;10.20;79.60
76172;DHT22;64929;51.178;4.138;2023-05-19T02:12:46;10.00;79.70
76172;DHT22;64929;51.178;4.138;2023-05-19T02:15:16;9.80;80.60
76172;DHT22;64929;51.178;4.138;2023-05-19T02:17:43;9.60;81.20
76172;DHT22;64929;51.178;4.138;2023-05-19T02:20:16;9.70;82.10
76172;DHT22;64929;51.178;4.138;2023-05-19T02:22:42;9.60;82.00
76172;DHT22;64929;51.178;4.138;2023-05-19T02:25:09;9.70;81.00
76172;DHT22;64929;51.178;4.138;2023-05-19T02:27:36;9.70;81.30
76172;DHT22;64929;51.178;4.138;2023-05-19T02:30:03;9.70;81.30
76172;DHT22;64929;51.178;4.138;2023-05-19T02:32:30;9.80;80.90
76172;DHT22;64929;51.178;4.138;2023-05-19T02:34:56;9.60;81.50
76172;DHT22;64929;51.178;4.138;2023-05-19T02:37:21;9.70;81.60
76172;DHT22;64929;51.178;4.138;2023-05-19T02:39:53;9.80;80.80
76172;DHT22;64929;51.178;4.138;2023-05-19T02:42:18;9.90;80.40
76172;DHT22;64929;51.178;4.138;2023-05-19T02:44:44;9.90;80.90
76172;DHT22;64929;51.178;4.138;2023-05-19T02:47:10;10.00;80.50
76172;DHT22;64929;51.178;4.138;2023-05-19T02:49:36;9.80;80.50
76172;DHT22;64929;51.178;4.138;2023-05-19T02:52:03;10.00;80.60
76172;DHT22;64929;51.178;4.138;2023-05-19T02:54:33;10.20;79.80
76172;DHT22;64929;51.178;4.138;2023-05-19T02:56:59;10.20;79.60
76172;DHT22;64929;51.178;4.138;2023-05-19T02:59:25;10.20;79.60
76172;DHT22;64929;51.178;4.138;2023-05-19T03:01:55;10.00;80.20
76172;DHT22;64929;51.178;4.138;2023-05-19T03:04:21;10.30;79.60
76172;DHT22;64929;51.178;4.138;2023-05-19T03:06:46;10.10;79.80
76172;DHT22;64929;51.178;4.138;2023-05-19T03:09:12;10.10;80.40
76172;DHT22;64929;51.178;4.138;2023-05-19T03:11:39;9.90;80.80
76172;DHT22;64929;51.178;4.138;2023-05-19T03:14:04;9.80;81.40
76172;DHT22;64929;51.178;4.138;2023-05-19T03:16:30;9.90;81.50
76172;DHT22;64929;51.178;4.138;2023-05-19T03:18:57;9.80;81.70
76172;DHT22;64929;51.178;4.138;2023-05-19T03:21:22;9.70;82.10
76172;DHT22;64929;51.178;4.138;2023-05-19T03:23:48;9.70;82.80
76172;DHT22;64929;51.178;4.138;2023-05-19T03:26:14;9.70;82.00
76172;DHT22;64929;51.178;4.138;2023-05-19T03:28:39;9.60;82.70
76172;DHT22;64929;51.178;4.138;2023-05-19T03:31:05;9.70;82.60
76172;DHT22;64929;51.178;4.138;2023-05-19T03:33:31;9.60;82.60
76172;DHT22;64929;51.178;4.138;2023-05-19T03:35:56;9.60;83.20
76172;DHT22;64929;51.178;4.138;2023-05-19T03:38:22;9.70;83.10
76172;DHT22;64929;51.178;4.138;2023-05-19T03:40:48;10.00;81.80
76172;DHT22;64929;51.178;4.138;2023-05-19T03:43:13;10.10;81.40
76172;DHT22;64929;51.178;4.138;2023-05-19T03:45:40;10.00;81.20
76172;DHT22;64929;51.178;4.138;2023-05-19T03:48:06;9.90;81.90
76172;DHT22;64929;51.178;4.138;2023-05-19T03:50:32;10.20;80.50
76172;DHT22;64929;51.178;4.138;2023-05-19T03:52:58;9.90;81.60
76172;DHT22;64929;51.178;4.138;2023-05-19T03:55:24;9.80;82.00
76172;DHT22;64929;51.178;4.138;2023-05-19T03:57:50;10.00;81.50
76172;DHT22;64929;51.178;4.138;2023-05-19T04:00:17;9.90;82.00
76172;DHT22;64929;51.178;4.138;2023-05-19T04:02:43;9.90;81.80
76172;DHT22;64929;51.178;4.138;2023-05-19T04:05:09;10.00;81.50
76172;DHT22;64929;51.178;4.138;2023-05-19T04:07:35;10.20;80.60
76172;DHT22;64929;51.178;4.138;2023-05-19T04:10:06;10.40;79.90
76172;DHT22;64929;51.178;4.138;2023-05-19T04:12:32;10.40;79.80
76172;DHT22;64929;51.178;4.138;2023-05-19T04:14:58;10.50;79.50
76172;DHT22;64929;51.178;4.138;2023-05-19T04:17:24;10.50;79.10
76172;DHT22;64929;51.178;4.138;2023-05-19T04:19:53;10.60;78.90
76172;DHT22;64929;51.178;4.138;2023-05-19T04:22:18;10.70;78.60
76172;DHT22;64929;51.178;4.138;2023-05-19T04:24:44;10.70;78.60
76172;DHT22;64929;51.178;4.138;2023-05-19T04:27:10;10.80;78.30
76172;DHT22;64929;51.178;4.138;2023-05-19T04:29:37;10.60;78.90
76172;DHT22;64929;51.178;4.138;2023-05-19T04:32:05;10.50;79.60
76172;DHT22;64929;51.178;4.138;2023-05-19T04:34:32;10.40;80.20
76172;DHT22;64929;51.178;4.138;2023-05-19T04:36:59;10.50;79.80
76172;DHT22;64929;51.178;4.138;2023-05-19T04:39:25;10.60;79.10
76172;DHT22;64929;51.178;4.138;2023-05-19T04:41:50;10.60;79.90
76172;DHT22;64929;51.178;4.138;2023-05-19T04:44:18;10.50;80.00
76172;DHT22;64929;51.178;4.138;2023-05-19T04:46:44;10.70;79.90
76172;DHT22;64929;51.178;4.138;2023-05-19T04:49:10;10.80;79.80
76172;DHT22;64929;51.178;4.138;2023-05-19T04:51:39;10.70;79.90
76172;DHT22;64929;51.178;4.138;2023-05-19T04:54:06;10.70;79.60
76172;DHT22;64929;51.178;4.138;2023-05-19T04:56:32;10.70;80.50
76172;DHT22;64929;51.178;4.138;2023-05-19T04:58:58;10.70;81.30
76172;DHT22;64929;51.178;4.138;2023-05-19T05:01:24;10.50;81.90
76172;DHT22;64929;51.178;4.138;2023-05-19T05:03:51;10.60;81.60
76172;DHT22;64929;51.178;4.138;2023-05-19T05:06:20;10.60;81.90
76172;DHT22;64929;51.178;4.138;2023-05-19T05:08:47;10.80;81.60
76172;DHT22;64929;51.178;4.138;2023-05-19T05:11:13;10.90;81.10
76172;DHT22;64929;51.178;4.138;2023-05-19T05:13:39;11.00;81.00
76172;DHT22;64929;51.178;4.138;2023-05-19T05:16:05;11.00;80.80
76172;DHT22;64929;51.178;4.138;2023-05-19T05:18:33;11.10;80.00
76172;DHT22;64929;51.178;4.138;2023-05-19T05:20:59;11.10;79.60
76172;DHT22;64929;51.178;4.138;2023-05-19T05:23:26;11.10;80.20
76172;DHT22;64929;51.178;4.138;2023-05-19T05:25:52;11.20;80.20
76172;DHT22;64929;51.178;4.138;2023-05-19T05:28:17;11.30;79.60
76172;DHT22;64929;51.178;4.138;2023-05-19T05:30:43;11.40;79.40
76172;DHT22;64929;51.178;4.138;2023-05-19T05:33:09;11.50;79.40
76172;DHT22;64929;51.178;4.138;2023-05-19T05:35:36;11.40;79.00
76172;DHT22;64929;51.178;4.138;2023-05-19T05:38:02;11.50;78.90
76172;DHT22;64929;51.178;4.138;2023-05-19T05:40:28;11.60;78.40
76172;DHT22;64929;51.178;4.138;2023-05-19T05:42:53;11.60;78.10
76172;DHT22;64929;51.178;4.138;2023-05-19T05:45:21;11.60;78.70
76172;DHT22;64929;51.178;4.138;2023-05-19T05:47:47;11.70;78.30
76172;DHT22;64929;51.178;4.138;2023-05-19T05:50:13;11.70;78.10
76172;DHT22;64929;51.178;4.138;2023-05-19T05:52:40;11.70;79.00
76172;DHT22;64929;51.178;4.138;2023-05-19T05:55:07;11.70;79.00
76172;DHT22;64929;51.178;4.138;2023-05-19T05:57:33;11.70;79.00
76172;DHT22;64929;51.178;4.138;2023-05-19T06:00:02;11.80;78.90
76172;DHT22;64929;51.178;4.138;2023-05-19T06:02:30;11.80;78.40
76172;DHT22;64929;51.178;4.138;2023-05-19T06:04:55;11.90;77.70
76172;DHT22;64929;51.178;4.138;2023-05-19T06:07:21;11.90;78.50
76172;DHT22;64929;51.178;4.138;2023-05-19T06:09:47;12.10;78.20
76172;DHT22;64929;51.178;4.138;2023-05-19T06:12:12;12.20;77.00
76172;DHT22;64929;51.178;4.138;2023-05-19T06:14:38;12.10;76.90
76172;DHT22;64929;51.178;4.138;2023-05-19T06:17:04;12.30;77.30
76172;DHT22;64929;51.178;4.138;2023-05-19T06:19:30;12.40;76.50
76172;DHT22;64929;51.178;4.138;2023-05-19T06:21:56;12.60;74.60
76172;DHT22;64929;51.178;4.138;2023-05-19T06:24:22;12.50;75.30
76172;DHT22;64929;51.178;4.138;2023-05-19T06:26:47;12.20;75.90
76172;DHT22;64929;51.178;4.138;2023-05-19T06:29:13;12.10;76.40
76172;DHT22;64929;51.178;4.138;2023-05-19T06:31:39;12.00;76.60
76172;DHT22;64929;51.178;4.138;2023-05-19T06:34:04;12.30;76.40
76172;DHT22;64929;51.178;4.138;2023-05-19T06:36:30;12.20;76.00
76172;DHT22;64929;51.178;4.138;2023-05-19T06:38:56;12.40;75.70
76172;DHT22;64929;51.178;4.138;2023-05-19T06:41:22;12.20;76.10
76172;DHT22;64929;51.178;4.138;2023-05-19T06:43:48;12.50;75.50
76172;DHT22;64929;51.178;4.138;2023-05-19T06:46:13;12.50;76.10
76172;DHT22;64929;51.178;4.138;2023-05-19T06:48:39;12.60;75.30
76172;DHT22;64929;51.178;4.138;2023-05-19T06:51:04;12.60;74.10
76172;DHT22;64929;51.178;4.138;2023-05-19T06:53:30;12.70;73.70
76172;DHT22;64929;51.178;4.138;2023-05-19T06:55:56;12.80;74.20
76172;DHT22;64929;51.178;4.138;2023-05-19T06:58:21;12.80;74.10
76172;DHT22;64929;51.178;4.138;2023-05-19T07:00:47;12.80;74.20
76172;DHT22;64929;51.178;4.138;2023-05-19T07:03:13;12.80;74.00
76172;DHT22;64929;51.178;4.138;2023-05-19T07:05:38;13.00;74.20
76172;DHT22;64929;51.178;4.138;2023-05-19T07:08:04;13.30;74.00
76172;DHT22;64929;51.178;4.138;2023-05-19T07:10:30;13.30;73.00
76172;DHT22;64929;51.178;4.138;2023-05-19T07:12:56;13.30;73.20
76172;DHT22;64929;51.178;4.138;2023-05-19T07:15:22;13.50;73.50
76172;DHT22;64929;51.178;4.138;2023-05-19T07:17:48;13.70;72.40
76172;DHT22;64929;51.178;4.138;2023-05-19T07:20:13;13.70;73.00
76172;DHT22;64929;51.178;4.138;2023-05-19T07:22:39;13.70;73.40
76172;DHT22;64929;51.178;4.138;2023-05-19T07:25:08;13.80;72.00
76172;DHT22;64929;51.178;4.138;2023-05-19T07:27:33;13.60;72.20
76172;DHT22;64929;51.178;4.138;2023-05-19T07:29:59;13.70;73.10
76172;DHT22;64929;51.178;4.138;2023-05-19T07:32:25;13.90;71.40
76172;DHT22;64929;51.178;4.138;2023-05-19T07:34:51;14.10;71.80
76172;DHT22;64929;51.178;4.138;2023-05-19T07:37:16;14.20;71.30
76172;DHT22;64929;51.178;4.138;2023-05-19T07:39:42;14.30;71.10
76172;DHT22;64929;51.178;4.138;2023-05-19T07:42:09;14.30;71.60
76172;DHT22;64929;51.178;4.138;2023-05-19T07:44:34;14.40;70.90
76172;DHT22;64929;51.178;4.138;2023-05-19T07:47:00;14.60;70.40
76172;DHT22;64929;51.178;4.138;2023-05-19T07:49:26;14.60;70.10
76172;DHT22;64929;51.178;4.138;2023-05-19T07:51:52;14.60;70.80
76172;DHT22;64929;51.178;4.138;2023-05-19T07:54:18;14.60;71.10
76172;DHT22;64929;51.178;4.138;2023-05-19T07:56:44;14.50;70.50
76172;DHT22;64929;51.178;4.138;2023-05-19T07:59:10;14.50;70.30
76172;DHT22;64929;51.178;4.138;2023-05-19T08:01:35;14.60;70.60
76172;DHT22;64929;51.178;4.138;2023-05-19T08:04:01;14.70;70.00
76172;DHT22;64929;51.178;4.138;2023-05-19T08:06:27;14.80;70.60
76172;DHT22;64929;51.178;4.138;2023-05-19T08:08:54;14.90;70.50
76172;DHT22;64929;51.178;4.138;2023-05-19T08:11:20;14.90;69.80
76172;DHT22;64929;51.178;4.138;2023-05-19T08:13:46;15.00;69.60
76172;DHT22;64929;51.178;4.138;2023-05-19T08:16:14;15.10;69.80
76172;DHT22;64929;51.178;4.138;2023-05-19T08:18:40;15.10;70.40
76172;DHT22;64929;51.178;4.138;2023-05-19T08:21:05;15.20;69.10
76172;DHT22;64929;51.178;4.138;2023-05-19T08:23:31;15.30;70.80
76172;DHT22;64929;51.178;4.138;2023-05-19T08:25:57;15.30;70.20
76172;DHT22;64929;51.178;4.138;2023-05-19T08:28:23;15.30;68.40
76172;DHT22;64929;51.178;4.138;2023-05-19T08:30:49;15.20;67.40
76172;DHT22;64929;51.178;4.138;2023-05-19T08:33:16;15.30;68.40
76172;DHT22;64929;51.178;4.138;2023-05-19T08:35:42;15.40;67.80
76172;DHT22;64929;51.178;4.138;2023-05-19T08:38:07;15.60;67.80
76172;DHT22;64929;51.178;4.138;2023-05-19T08:40:34;15.60;67.30
76172;DHT22;64929;51.178;4.138;2023-05-19T08:43:02;15.60;68.00
76172;DHT22;64929;51.178;4.138;2023-05-19T08:45:27;15.50;68.50
76172;DHT22;64929;51.178;4.138;2023-05-19T08:47:54;15.50;66.30
76172;DHT22;64929;51.178;4.138;2023-05-19T08:50:23;15.60;68.00
76172;DHT22;64929;51.178;4.138;2023-05-19T08:53:09;15.70;66.80
76172;DHT22;64929;51.178;4.138;2023-05-19T08:58:40;15.80;66.20
76172;DHT22;64929;51.178;4.138;2023-05-19T09:01:08;15.80;66.40
76172;DHT22;64929;51.178;4.138;2023-05-19T09:03:35;15.80;65.00
76172;DHT22;64929;51.178;4.138;2023-05-19T09:06:09;15.80;65.40
76172;DHT22;64929;51.178;4.138;2023-05-19T09:08:38;16.00;64.40
76172;DHT22;64929;51.178;4.138;2023-05-19T09:11:04;16.00;64.20
76172;DHT22;64929;51.178;4.138;2023-05-19T09:13:30;15.90;64.80
76172;DHT22;64929;51.178;4.138;2023-05-19T09:15:57;16.00;66.10
76172;DHT22;64929;51.178;4.138;2023-05-19T09:18:26;16.20;65.10
76172;DHT22;64929;51.178;4.138;2023-05-19T09:20:56;16.30;63.70
76172;DHT22;64929;51.178;4.138;2023-05-19T09:23:29;16.40;63.20
76172;DHT22;64929;51.178;4.138;2023-05-19T09:25:56;16.50;64.10
76172;DHT22;64929;51.178;4.138;2023-05-19T09:30:48;16.40;62.20
76172;DHT22;64929;51.178;4.138;2023-05-19T09:33:18;16.70;62.90
76172;DHT22;64929;51.178;4.138;2023-05-19T09:35:47;16.80;63.80
76172;DHT22;64929;51.178;4.138;2023-05-19T09:38:17;16.80;63.40
76172;DHT22;64929;51.178;4.138;2023-05-19T09:40:43;16.80;63.00
76172;DHT22;64929;51.178;4.138;2023-05-19T09:43:09;16.80;61.70
76172;DHT22;64929;51.178;4.138;2023-05-19T09:45:35;16.80;61.00
76172;DHT22;64929;51.178;4.138;2023-05-19T09:48:03;17.00;61.90
76172;DHT22;64929;51.178;4.138;2023-05-19T09:50:31;16.90;63.30
76172;DHT22;64929;51.178;4.138;2023-05-19T09:52:57;17.10;62.00
76172;DHT22;64929;51.178;4.138;2023-05-19T09:55:25;17.30;62.80
76172;DHT22;64929;51.178;4.138;2023-05-19T09:57:53;17.40;60.70
76172;DHT22;64929;51.178;4.138;2023-05-19T10:00:19;17.50;62.00
76172;DHT22;64929;51.178;4.138;2023-05-19T10:02:46;17.60;58.70
76172;DHT22;64929;51.178;4.138;2023-05-19T10:05:14;17.70;60.00
76172;DHT22;64929;51.178;4.138;2023-05-19T10:07:45;17.50;59.20
76172;DHT22;64929;51.178;4.138;2023-05-19T10:10:13;17.60;57.10
76172;DHT22;64929;51.178;4.138;2023-05-19T10:12:40;17.70;60.10
76172;DHT22;64929;51.178;4.138;2023-05-19T10:15:11;17.70;57.80
76172;DHT22;64929;51.178;4.138;2023-05-19T10:17:38;17.80;56.90
76172;DHT22;64929;51.178;4.138;2023-05-19T10:20:14;18.10;56.60
76172;DHT22;64929;51.178;4.138;2023-05-19T10:22:42;18.30;55.80
76172;DHT22;64929;51.178;4.138;2023-05-19T10:25:09;18.30;56.70
76172;DHT22;64929;51.178;4.138;2023-05-19T10:27:40;18.40;55.70
76172;DHT22;64929;51.178;4.138;2023-05-19T10:30:16;18.30;56.70
76172;DHT22;64929;51.178;4.138;2023-05-19T10:32:43;18.10;54.00
76172;DHT22;64929;51.178;4.138;2023-05-19T10:38:11;18.40;56.00
76172;DHT22;64929;51.178;4.138;2023-05-19T10:46:22;18.70;52.70
76172;DHT22;64929;51.178;4.138;2023-05-19T10:48:48;18.70;54.70
76172;DHT22;64929;51.178;4.138;2023-05-19T10:51:14;18.30;54.30
76172;DHT22;64929;51.178;4.138;2023-05-19T10:53:41;18.30;54.90
76172;DHT22;64929;51.178;4.138;2023-05-19T10:56:27;18.60;56.90
76172;DHT22;64929;51.178;4.138;2023-05-19T10:58:54;18.80;56.70
76172;DHT22;64929;51.178;4.138;2023-05-19T11:01:20;18.70;55.40
76172;DHT22;64929;51.178;4.138;2023-05-19T11:03:50;18.80;56.50
76172;DHT22;64929;51.178;4.138;2023-05-19T11:06:33;19.00;54.80
76172;DHT22;64929;51.178;4.138;2023-05-19T11:09:16;18.80;55.70
76172;DHT22;64929;51.178;4.138;2023-05-19T11:11:52;18.60;56.40
76172;DHT22;64929;51.178;4.138;2023-05-19T11:14:30;18.40;57.80
76172;DHT22;64929;51.178;4.138;2023-05-19T11:16:58;18.60;57.30
76172;DHT22;64929;51.178;4.138;2023-05-19T11:19:29;18.80;59.10
76172;DHT22;64929;51.178;4.138;2023-05-19T11:21:56;18.80;57.40
76172;DHT22;64929;51.178;4.138;2023-05-19T11:24:36;18.90;55.00
76172;DHT22;64929;51.178;4.138;2023-05-19T11:27:20;19.00;54.00
76172;DHT22;64929;51.178;4.138;2023-05-19T11:29:47;19.10;52.10
76172;DHT22;64929;51.178;4.138;2023-05-19T11:32:14;19.00;50.20
76172;DHT22;64929;51.178;4.138;2023-05-19T11:34:40;19.20;50.90
76172;DHT22;64929;51.178;4.138;2023-05-19T11:37:06;19.10;50.80
76172;DHT22;64929;51.178;4.138;2023-05-19T11:39:33;19.30;49.50
76172;DHT22;64929;51.178;4.138;2023-05-19T11:41:59;19.20;49.00
76172;DHT22;64929;51.178;4.138;2023-05-19T11:44:25;19.30;49.60
76172;DHT22;64929;51.178;4.138;2023-05-19T11:46:51;19.40;49.50
76172;DHT22;64929;51.178;4.138;2023-05-19T11:49:17;19.50;50.10
76172;DHT22;64929;51.178;4.138;2023-05-19T11:51:44;19.60;49.50
76172;DHT22;64929;51.178;4.138;2023-05-19T11:54:11;19.70;49.80
76172;DHT22;64929;51.178;4.138;2023-05-19T11:56:40;19.90;48.80
76172;DHT22;64929;51.178;4.138;2023-05-19T11:59:06;20.00;49.60
76172;DHT22;64929;51.178;4.138;2023-05-19T12:01:33;19.90;49.30
76172;DHT22;64929;51.178;4.138;2023-05-19T12:03:59;19.90;49.10
76172;DHT22;64929;51.178;4.138;2023-05-19T12:06:26;19.90;48.80
76172;DHT22;64929;51.178;4.138;2023-05-19T12:08:53;19.90;47.80
76172;DHT22;64929;51.178;4.138;2023-05-19T12:11:19;19.50;49.90
76172;DHT22;64929;51.178;4.138;2023-05-19T12:13:46;19.60;50.00
76172;DHT22;64929;51.178;4.138;2023-05-19T12:16:12;19.50;50.30
76172;DHT22;64929;51.178;4.138;2023-05-19T12:18:38;19.60;47.00
76172;DHT22;64929;51.178;4.138;2023-05-19T12:21:07;19.40;47.30
76172;DHT22;64929;51.178;4.138;2023-05-19T12:23:33;19.50;47.90
76172;DHT22;64929;51.178;4.138;2023-05-19T12:25:59;19.60;47.60
76172;DHT22;64929;51.178;4.138;2023-05-19T12:28:29;19.60;49.20
76172;DHT22;64929;51.178;4.138;2023-05-19T12:30:55;19.70;49.30
76172;DHT22;64929;51.178;4.138;2023-05-19T12:33:23;19.80;48.10
76172;DHT22;64929;51.178;4.138;2023-05-19T12:35:49;19.90;48.00
76172;DHT22;64929;51.178;4.138;2023-05-19T12:38:15;20.00;45.50
76172;DHT22;64929;51.178;4.138;2023-05-19T12:40:43;19.80;46.00
76172;DHT22;64929;51.178;4.138;2023-05-19T12:43:22;19.60;46.30
76172;DHT22;64929;51.178;4.138;2023-05-19T12:45:48;19.70;47.70
76172;DHT22;64929;51.178;4.138;2023-05-19T12:48:14;19.90;47.60
76172;DHT22;64929;51.178;4.138;2023-05-19T12:50:41;19.90;46.40
76172;DHT22;64929;51.178;4.138;2023-05-19T12:53:13;19.80;49.10
76172;DHT22;64929;51.178;4.138;2023-05-19T12:55:43;20.10;47.40
76172;DHT22;64929;51.178;4.138;2023-05-19T12:58:10;20.20;47.90
76172;DHT22;64929;51.178;4.138;2023-05-19T13:00:43;20.20;48.10
76172;DHT22;64929;51.178;4.138;2023-05-19T13:03:19;20.20;45.30
76172;DHT22;64929;51.178;4.138;2023-05-19T13:05:46;20.20;46.40
76172;DHT22;64929;51.178;4.138;2023-05-19T13:08:15;20.30;47.00
76172;DHT22;64929;51.178;4.138;2023-05-19T13:10:43;20.10;47.40
76172;DHT22;64929;51.178;4.138;2023-05-19T13:13:09;20.20;48.20
76172;DHT22;64929;51.178;4.138;2023-05-19T13:15:43;20.20;45.80
76172;DHT22;64929;51.178;4.138;2023-05-19T13:18:12;20.40;45.90
76172;DHT22;64929;51.178;4.138;2023-05-19T13:20:39;20.70;44.10
76172;DHT22;64929;51.178;4.138;2023-05-19T13:23:05;20.70;46.40
76172;DHT22;64929;51.178;4.138;2023-05-19T13:25:34;20.70;45.20
76172;DHT22;64929;51.178;4.138;2023-05-19T13:28:01;20.90;44.30
76172;DHT22;64929;51.178;4.138;2023-05-19T13:30:30;21.20;42.90
76172;DHT22;64929;51.178;4.138;2023-05-19T13:32:56;21.60;43.10
76172;DHT22;64929;51.178;4.138;2023-05-19T13:35:22;22.20;40.80
76172;DHT22;64929;51.178;4.138;2023-05-19T13:37:48;22.60;41.30
76172;DHT22;64929;51.178;4.138;2023-05-19T13:40:14;23.30;40.90
76172;DHT22;64929;51.178;4.138;2023-05-19T13:42:41;24.30;37.50
76172;DHT22;64929;51.178;4.138;2023-05-19T13:45:08;25.70;35.50
76172;DHT22;64929;51.178;4.138;2023-05-19T13:47:33;25.60;36.20
76172;DHT22;64929;51.178;4.138;2023-05-19T13:50:00;25.80;35.40
76172;DHT22;64929;51.178;4.138;2023-05-19T13:52:26;25.10;36.00
76172;DHT22;64929;51.178;4.138;2023-05-19T13:54:52;24.20;37.70
76172;DHT22;64929;51.178;4.138;2023-05-19T13:57:24;24.40;37.60
76172;DHT22;64929;51.178;4.138;2023-05-19T13:59:51;24.80;37.00
76172;DHT22;64929;51.178;4.138;2023-05-19T14:02:17;24.80;35.40
76172;DHT22;64929;51.178;4.138;2023-05-19T14:04:45;24.20;36.30
76172;DHT22;64929;51.178;4.138;2023-05-19T14:07:11;24.60;36.60
76172;DHT22;64929;51.178;4.138;2023-05-19T14:09:37;25.50;35.60
76172;DHT22;64929;51.178;4.138;2023-05-19T14:12:03;26.00;35.20
76172;DHT22;64929;51.178;4.138;2023-05-19T14:14:30;27.60;33.60
76172;DHT22;64929;51.178;4.138;2023-05-19T14:16:56;28.60;32.30
76172;DHT22;64929;51.178;4.138;2023-05-19T14:19:21;30.20;29.90
76172;DHT22;64929;51.178;4.138;2023-05-19T14:21:49;30.40;29.80
76172;DHT22;64929;51.178;4.138;2023-05-19T14:24:15;29.70;30.20
76172;DHT22;64929;51.178;4.138;2023-05-19T14:26:40;30.70;29.40
76172;DHT22;64929;51.178;4.138;2023-05-19T14:29:06;30.80;28.10
76172;DHT22;64929;51.178;4.138;2023-05-19T14:31:33;31.70;28.20
76172;DHT22;64929;51.178;4.138;2023-05-19T14:33:59;31.40;27.50
76172;DHT22;64929;51.178;4.138;2023-05-19T14:36:25;31.00;28.20
76172;DHT22;64929;51.178;4.138;2023-05-19T14:38:50;30.30;28.50
76172;DHT22;64929;51.178;4.138;2023-05-19T14:41:16;29.90;28.80
76172;DHT22;64929;51.178;4.138;2023-05-19T14:43:42;30.60;28.30
76172;DHT22;64929;51.178;4.138;2023-05-19T14:46:07;31.50;28.30
76172;DHT22;64929;51.178;4.138;2023-05-19T14:48:34;31.90;28.20
76172;DHT22;64929;51.178;4.138;2023-05-19T14:50:59;31.60;27.60
76172;DHT22;64929;51.178;4.138;2023-05-19T14:53:25;30.30;27.60
76172;DHT22;64929;51.178;4.138;2023-05-19T14:55:51;28.70;28.00
76172;DHT22;64929;51.178;4.138;2023-05-19T14:58:16;27.40;28.90
76172;DHT22;64929;51.178;4.138;2023-05-19T15:00:42;26.90;29.70
76172;DHT22;64929;51.178;4.138;2023-05-19T15:03:08;27.20;30.10
76172;DHT22;64929;51.178;4.138;2023-05-19T15:05:36;27.90;29.00
76172;DHT22;64929;51.178;4.138;2023-05-19T15:08:02;28.50;29.30
76172;DHT22;64929;51.178;4.138;2023-05-19T15:10:28;28.30;30.50
76172;DHT22;64929;51.178;4.138;2023-05-19T15:12:54;27.70;31.00
76172;DHT22;64929;51.178;4.138;2023-05-19T15:15:21;28.60;29.70
76172;DHT22;64929;51.178;4.138;2023-05-19T15:17:47;28.90;29.30
76172;DHT22;64929;51.178;4.138;2023-05-19T15:20:13;29.70;28.90
76172;DHT22;64929;51.178;4.138;2023-05-19T15:22:39;30.50;28.80
76172;DHT22;64929;51.178;4.138;2023-05-19T15:25:05;30.60;28.20
76172;DHT22;64929;51.178;4.138;2023-05-19T15:27:30;30.50;28.00
76172;DHT22;64929;51.178;4.138;2023-05-19T15:29:56;29.60;28.40
76172;DHT22;64929;51.178;4.138;2023-05-19T15:32:23;28.70;29.60
76172;DHT22;64929;51.178;4.138;2023-05-19T15:34:48;28.60;30.00
76172;DHT22;64929;51.178;4.138;2023-05-19T15:37:14;28.40;28.80
76172;DHT22;64929;51.178;4.138;2023-05-19T15:39:40;28.20;29.50
76172;DHT22;64929;51.178;4.138;2023-05-19T15:42:05;27.30;30.90
76172;DHT22;64929;51.178;4.138;2023-05-19T15:44:31;26.70;30.10
76172;DHT22;64929;51.178;4.138;2023-05-19T15:46:57;26.60;29.90
76172;DHT22;64929;51.178;4.138;2023-05-19T15:49:22;25.70;32.00
76172;DHT22;64929;51.178;4.138;2023-05-19T15:51:49;25.30;31.40
76172;DHT22;64929;51.178;4.138;2023-05-19T15:54:15;25.20;31.30
76172;DHT22;64929;51.178;4.138;2023-05-19T15:56:41;25.10;31.50
76172;DHT22;64929;51.178;4.138;2023-05-19T15:59:06;24.60;33.10